Time;durP1;ratioP1;P1;durP2;ratioP2;P2;SDS_P1;SDS_P2;PMS_P1;PMS_P2;Temp;Humidity;BMP_temperature;BMP_pressure;BME280_temperature;BME280_humidity;BME280_pressure;Samples;Min_cycle;Max_cycle;Signal;HPM_P1;HPM_P2
2022/10/10 06:06:47;;;;;;;5.15;2.92;;;16.80;71.10;;;;;;5054163;28;20060;-73
2022/10/10 06:09:12;;;;;;;9.73;3.47;;;16.80;71.80;;;;;;5052259;28;20489;-81
2022/10/10 06:11:38;;;;;;;8.70;3.40;;;16.90;72.30;;;;;;5052272;28;20044;-72
2022/10/10 06:14:04;;;;;;;7.75;3.28;;;16.90;72.60;;;;;;5054420;28;20393;-76
2022/10/10 06:16:29;;;;;;;10.32;3.33;;;16.90;72.70;;;;;;5072462;28;20036;-85
2022/10/10 06:18:58;;;;;;;8.32;3.00;;;16.90;72.60;;;;;;5072353;28;20039;-73
2022/10/10 06:21:24;;;;;;;8.55;3.13;;;16.90;72.50;;;;;;5072623;28;20560;-83
2022/10/10 06:23:50;;;;;;;9.35;3.65;;;16.90;72.20;;;;;;5057296;28;20485;-82
2022/10/10 06:26:16;;;;;;;5.82;3.10;;;17.00;72.10;;;;;;5054139;28;20033;-85
2022/10/10 06:28:42;;;;;;;7.68;3.38;;;17.00;72.00;;;;;;5056099;28;20448;-71
2022/10/10 06:31:10;;;;;;;9.10;3.55;;;17.00;71.60;;;;;;5056704;28;20056;-85
2022/10/10 06:33:36;;;;;;;10.82;3.30;;;17.00;71.10;;;;;;5056758;28;20440;-85
2022/10/10 06:36:06;;;;;;;9.18;3.63;;;17.10;70.60;;;;;;5056171;28;20117;-73
2022/10/10 06:38:35;;;;;;;11.27;3.72;;;17.10;70.90;;;;;;5056723;28;20036;-71
2022/10/10 06:41:03;;;;;;;7.05;3.97;;;17.10;71.10;;;;;;5056159;28;20033;-83
2022/10/10 06:43:29;;;;;;;7.30;3.75;;;17.10;71.00;;;;;;5056098;28;20044;-77
2022/10/10 06:45:54;;;;;;;11.70;3.60;;;17.20;70.70;;;;;;5060054;28;20032;-83
2022/10/10 06:48:20;;;;;;;6.43;3.33;;;17.20;70.10;;;;;;5077511;28;20119;-90
2022/10/10 06:51:10;;;;;;;8.00;3.60;;;17.20;69.90;;;;;;5078246;28;20059;-84
2022/10/10 06:53:35;;;;;;;10.38;4.00;;;17.20;69.80;;;;;;5077657;28;20041;-80
2022/10/10 06:56:02;;;;;;;7.47;4.22;;;17.20;69.30;;;;;;5076612;28;20492;-76
2022/10/10 06:58:28;;;;;;;13.95;4.57;;;17.30;69.20;;;;;;5077296;28;20107;-86
2022/10/10 07:00:59;;;;;;;6.60;3.60;;;17.30;69.20;;;;;;5077366;28;20039;-89
2022/10/10 07:03:27;;;;;;;8.10;3.40;;;17.30;69.30;;;;;;5056609;28;20068;-74
2022/10/10 07:05:55;;;;;;;12.05;3.97;;;17.40;69.20;;;;;;5057212;28;20123;-70
2022/10/10 07:08:22;;;;;;;5.78;3.97;;;17.40;69.10;;;;;;5056620;28;20071;-78
2022/10/10 07:10:48;;;;;;;11.65;4.07;;;17.40;70.10;;;;;;5056970;28;20033;-84
2022/10/10 07:13:14;;;;;;;7.43;4.00;;;17.50;69.70;;;;;;5056049;28;20041;-71
2022/10/10 07:15:40;;;;;;;9.35;4.35;;;17.50;69.00;;;;;;5056537;28;20039;-70
2022/10/10 07:18:06;;;;;;;8.73;4.38;;;17.50;69.00;;;;;;5057118;28;20112;-81
2022/10/10 07:20:33;;;;;;;6.50;4.25;;;17.50;68.80;;;;;;5057143;28;20574;-83
2022/10/10 07:22:58;;;;;;;8.60;4.47;;;17.60;68.70;;;;;;5055541;28;20108;-71
2022/10/10 07:25:24;;;;;;;7.53;3.85;;;17.70;68.10;;;;;;5055344;28;20116;-72
2022/10/10 07:27:50;;;;;;;5.47;3.85;;;17.70;67.60;;;;;;5055961;28;20426;-74
2022/10/10 07:30:16;;;;;;;16.48;3.90;;;17.60;67.40;;;;;;5055820;28;20039;-73
2022/10/10 07:32:42;;;;;;;5.30;3.85;;;17.70;67.30;;;;;;5057036;28;20029;-86
2022/10/10 07:35:09;;;;;;;7.32;3.88;;;17.70;67.50;;;;;;5075360;28;20030;-74
2022/10/10 07:37:34;;;;;;;5.43;3.70;;;17.70;68.00;;;;;;5074539;28;20043;-74
2022/10/10 07:40:00;;;;;;;12.02;3.70;;;17.80;68.60;;;;;;5075179;28;20036;-70
2022/10/10 07:42:25;;;;;;;8.65;4.10;;;17.80;69.00;;;;;;5075502;28;20028;-73
2022/10/10 07:44:51;;;;;;;9.05;4.35;;;17.70;69.40;;;;;;5075676;28;20067;-83
2022/10/10 07:47:17;;;;;;;8.48;4.10;;;17.80;70.10;;;;;;5075445;28;20029;-71
2022/10/10 07:49:42;;;;;;;11.48;5.28;;;17.80;71.00;;;;;;5075485;28;20115;-75
2022/10/10 07:52:08;;;;;;;10.45;4.97;;;17.80;71.60;;;;;;5075313;28;20542;-71
2022/10/10 07:54:34;;;;;;;11.50;4.47;;;17.70;71.80;;;;;;5074978;28;20037;-70
2022/10/10 07:56:59;;;;;;;11.05;4.07;;;17.80;72.00;;;;;;5074910;28;20098;-70
2022/10/10 07:59:25;;;;;;;13.98;4.45;;;17.90;71.80;;;;;;5074953;28;20077;-72
2022/10/10 08:01:51;;;;;;;9.98;4.00;;;17.90;71.50;;;;;;5056320;28;20039;-75
2022/10/10 08:04:17;;;;;;;9.50;4.07;;;18.00;71.00;;;;;;5073771;28;20485;-71
2022/10/10 08:06:43;;;;;;;7.00;4.05;;;18.00;70.70;;;;;;5073026;28;20127;-71
2022/10/10 08:09:09;;;;;;;10.07;4.32;;;18.00;70.70;;;;;;5056834;28;20033;-71
2022/10/10 08:11:35;;;;;;;8.45;3.72;;;18.00;70.40;;;;;;5074802;28;20524;-71
2022/10/10 08:14:00;;;;;;;5.95;4.07;;;18.10;69.70;;;;;;5074856;28;20025;-74
2022/10/10 08:16:27;;;;;;;7.63;3.92;;;18.10;68.70;;;;;;5074483;28;20439;-71
2022/10/10 08:18:52;;;;;;;9.32;4.35;;;18.20;68.10;;;;;;5074562;28;20032;-70
2022/10/10 08:21:18;;;;;;;8.52;3.97;;;18.20;67.70;;;;;;5074612;28;20043;-71
2022/10/10 08:23:45;;;;;;;13.20;4.35;;;18.30;67.40;;;;;;5074884;28;20115;-71
2022/10/10 08:26:13;;;;;;;11.85;4.15;;;18.40;67.10;;;;;;5074950;28;20051;-84
2022/10/10 08:28:39;;;;;;;7.18;4.68;;;18.40;67.30;;;;;;5074609;28;20176;-72
2022/10/10 08:31:06;;;;;;;6.50;4.07;;;18.40;66.90;;;;;;5074498;28;20366;-72
2022/10/10 08:33:32;;;;;;;8.85;4.72;;;18.50;66.60;;;;;;5074340;28;20042;-72
2022/10/10 08:36:02;;;;;;;8.65;3.95;;;18.50;66.70;;;;;;5074561;28;20431;-71
2022/10/10 08:38:28;;;;;;;10.20;4.68;;;18.60;66.40;;;;;;5074271;28;20029;-71
2022/10/10 08:40:56;;;;;;;9.85;4.45;;;18.70;67.00;;;;;;5074205;28;20048;-77
2022/10/10 08:43:39;;;;;;;10.68;4.50;;;18.80;66.70;;;;;;5074238;28;20043;-81
2022/10/10 08:46:15;;;;;;;8.50;5.40;;;18.90;66.10;;;;;;5074644;28;20472;-72
2022/10/10 08:48:42;;;;;;;10.85;4.75;;;19.00;65.90;;;;;;5074356;28;20024;-71
2022/10/10 08:51:23;;;;;;;7.05;4.65;;;19.00;65.60;;;;;;5074419;28;20029;-72
2022/10/10 08:53:52;;;;;;;10.73;4.63;;;19.10;65.90;;;;;;5074062;28;20055;-81
2022/10/10 08:56:26;;;;;;;8.10;5.03;;;19.10;66.90;;;;;;5073968;28;20473;-71
2022/10/10 08:58:57;;;;;;;9.23;4.97;;;19.20;65.80;;;;;;5074089;28;20060;-71
2022/10/10 09:01:31;;;;;;;7.75;4.57;;;19.30;65.60;;;;;;5073733;28;20074;-83
2022/10/10 09:03:59;;;;;;;13.05;5.10;;;19.30;66.60;;;;;;5073849;28;20051;-76
2022/10/10 09:06:31;;;;;;;11.90;5.07;;;19.40;67.70;;;;;;5072273;28;20437;-72
2022/10/10 09:08:56;;;;;;;8.63;5.03;;;19.50;66.70;;;;;;5053396;28;20497;-71
2022/10/10 09:11:39;;;;;;;8.02;4.68;;;19.50;67.10;;;;;;5053674;28;20131;-71
2022/10/10 09:14:04;;;;;;;;;;;19.60;66.70;;;;;;5053932;28;20497;-71
2022/10/10 09:16:46;;;;;;;11.48;6.05;;;19.70;66.00;;;;;;5053316;28;19904;-71
2022/10/10 09:19:14;;;;;;;9.45;6.40;;;19.80;65.60;;;;;;5053270;28;20033;-71
2022/10/10 09:21:42;;;;;;;10.98;6.30;;;19.90;65.00;;;;;;5053516;28;20056;-72
2022/10/10 09:24:32;;;;;;;9.80;6.88;;;20.00;65.40;;;;;;5053444;28;20059;-71
2022/10/10 09:27:03;;;;;;;9.10;6.10;;;20.00;63.20;;;;;;5053278;28;20452;-72
2022/10/10 09:29:37;;;;;;;8.98;5.57;;;20.10;63.10;;;;;;5053635;28;20045;-71
2022/10/10 09:32:32;;;;;;;9.77;6.20;;;20.10;62.80;;;;;;5053298;28;20032;-71
2022/10/10 09:35:13;;;;;;;10.60;6.00;;;20.20;63.20;;;;;;5042280;28;20041;-72
2022/10/10 09:37:40;;;;;;;10.10;5.95;;;20.20;61.80;;;;;;5053253;28;20446;-71
2022/10/10 09:40:35;;;;;;;7.63;5.55;;;20.20;62.30;;;;;;5053067;28;20025;-71
2022/10/10 09:43:14;;;;;;;15.98;5.82;;;20.20;62.00;;;;;;5051041;28;20481;-82
2022/10/10 09:45:47;;;;;;;9.10;5.60;;;20.20;61.30;;;;;;5053022;28;20449;-71
2022/10/10 09:48:12;;;;;;;10.88;5.85;;;20.20;61.80;;;;;;5052950;28;20394;-71
2022/10/10 09:50:39;;;;;;;9.55;5.28;;;20.10;61.70;;;;;;5052817;28;20036;-71
2022/10/10 09:53:04;;;;;;;7.28;5.22;;;20.10;61.50;;;;;;5052916;28;20393;-75
2022/10/10 09:55:35;;;;;;;7.38;4.93;;;20.10;61.40;;;;;;5052810;28;20037;-71
2022/10/10 09:58:34;;;;;;;8.43;5.00;;;20.10;62.00;;;;;;5052721;28;20104;-71
2022/10/10 10:01:13;;;;;;;9.48;5.40;;;20.10;61.00;;;;;;5051810;28;20036;-71
2022/10/10 10:03:39;;;;;;;10.65;5.70;;;20.10;61.60;;;;;;5052719;28;20063;-80
2022/10/10 10:06:09;;;;;;;14.35;5.72;;;20.10;62.00;;;;;;5052483;28;20041;-71
2022/10/10 10:08:35;;;;;;;9.55;5.45;;;20.10;62.10;;;;;;5052880;28;20044;-71
2022/10/10 10:11:03;;;;;;;7.53;5.43;;;20.20;62.00;;;;;;5052599;28;20037;-71
2022/10/10 10:13:38;;;;;;;8.52;5.05;;;20.20;62.60;;;;;;5052485;28;20037;-71
2022/10/10 10:16:03;;;;;;;10.88;5.72;;;20.20;62.00;;;;;;5052678;28;20029;-71
2022/10/10 10:18:30;;;;;;;8.80;5.68;;;20.20;62.10;;;;;;5052501;28;20436;-72
2022/10/10 10:21:05;;;;;;;10.80;5.72;;;20.20;62.40;;;;;;5052460;28;20485;-71
2022/10/10 10:23:39;;;;;;;9.77;5.63;;;20.20;62.50;;;;;;5052367;28;20040;-71
2022/10/10 10:26:40;;;;;;;11.15;6.28;;;20.30;62.80;;;;;;5051179;28;20473;-70
2022/10/10 10:29:32;;;;;;;12.20;6.47;;;20.30;63.00;;;;;;5038247;28;20052;-71
2022/10/10 10:32:20;;;;;;;8.20;6.43;;;20.30;63.10;;;;;;5052645;28;20112;-71
2022/10/10 10:34:57;;;;;;;12.32;6.55;;;20.30;63.30;;;;;;5052484;28;20432;-71
2022/10/10 10:37:32;;;;;;;14.68;6.38;;;20.40;62.90;;;;;;5052278;28;20025;-72
2022/10/10 10:40:16;;;;;;;11.55;6.38;;;20.40;62.40;;;;;;5052435;28;20432;-82
2022/10/10 10:42:48;;;;;;;10.70;6.82;;;20.50;62.30;;;;;;5051999;28;20345;-71
2022/10/10 10:45:19;;;;;;;11.85;6.80;;;20.50;62.10;;;;;;5051045;28;20045;-70
2022/10/10 10:47:54;;;;;;;11.15;6.80;;;20.50;62.40;;;;;;5051737;28;20083;-73
2022/10/10 10:50:34;;;;;;;7.60;6.35;;;20.50;62.50;;;;;;5051233;28;20076;-80
2022/10/10 10:53:26;;;;;;;9.23;7.07;;;20.50;62.00;;;;;;5051503;28;20061;-70
2022/10/10 10:56:16;;;;;;;13.48;6.63;;;20.50;62.10;;;;;;5050462;28;20088;-70
2022/10/10 10:59:12;;;;;;;8.52;5.90;;;20.50;62.40;;;;;;5050113;28;20072;-72
2022/10/10 11:01:49;;;;;;;9.82;6.85;;;20.60;62.90;;;;;;5049949;28;20041;-72
2022/10/10 11:04:33;;;;;;;12.32;6.55;;;20.60;63.10;;;;;;5052099;28;20037;-72
2022/10/10 11:07:16;;;;;;;9.38;6.85;;;20.60;62.70;;;;;;5051790;28;20072;-72
2022/10/10 11:09:45;;;;;;;9.30;6.50;;;20.60;63.30;;;;;;5051803;28;20044;-71
2022/10/10 11:12:30;;;;;;;13.13;6.47;;;20.70;62.90;;;;;;5052036;28;20044;-82
2022/10/10 11:15:11;;;;;;;9.63;6.00;;;20.70;62.10;;;;;;5055835;28;20037;-81
2022/10/10 11:17:43;;;;;;;14.05;7.00;;;20.70;62.70;;;;;;5055103;28;20037;-72
2022/10/10 11:20:27;;;;;;;7.13;6.07;;;20.70;62.50;;;;;;5055982;28;20029;-72
2022/10/10 11:23:09;;;;;;;8.38;6.25;;;20.70;62.90;;;;;;5055715;28;20037;-81
2022/10/10 11:25:46;;;;;;;;;;;20.70;63.10;;;;;;5053188;28;20052;-72
2022/10/10 11:28:29;;;;;;;8.30;6.10;;;20.70;63.20;;;;;;5053143;28;20309;-72
2022/10/10 11:31:04;;;;;;;8.45;6.85;;;20.80;63.00;;;;;;5053729;28;20045;-72
2022/10/10 11:33:34;;;;;;;9.02;6.15;;;20.80;62.40;;;;;;5055332;28;20395;-72
2022/10/10 11:36:21;;;;;;;14.18;6.82;;;20.90;62.60;;;;;;5055376;28;20025;-72
2022/10/10 11:39:16;;;;;;;9.60;6.35;;;20.90;62.80;;;;;;5055324;28;20041;-73
2022/10/10 11:41:53;;;;;;;11.63;6.72;;;21.00;62.90;;;;;;5055353;28;20045;-73
2022/10/10 11:44:30;;;;;;;7.10;6.05;;;21.20;62.50;;;;;;5055186;28;20041;-70
2022/10/10 11:47:29;;;;;;;9.77;6.45;;;21.30;63.70;;;;;;5054885;28;20082;-73
2022/10/10 11:50:20;;;;;;;11.57;6.47;;;21.40;62.20;;;;;;5054642;28;20501;-70
2022/10/10 11:53:16;;;;;;;12.35;6.05;;;21.60;60.70;;;;;;5054713;28;20117;-81
2022/10/10 11:55:55;;;;;;;8.60;6.47;;;21.80;60.30;;;;;;5054901;28;20120;-80
2022/10/10 11:58:39;;;;;;;8.07;6.15;;;21.80;59.20;;;;;;5052075;28;20417;-73
2022/10/10 12:01:32;;;;;;;8.52;6.13;;;21.90;59.50;;;;;;5052359;28;20076;-73
2022/10/10 12:03:58;;;;;;;10.20;6.18;;;21.90;59.70;;;;;;5054918;28;20102;-72
2022/10/10 12:06:46;;;;;;;8.90;6.30;;;21.80;58.80;;;;;;5054902;28;20041;-82
2022/10/10 12:09:32;;;;;;;8.45;5.97;;;21.80;58.80;;;;;;5051531;28;20037;-82
2022/10/10 12:12:09;;;;;;;8.52;5.97;;;21.80;58.80;;;;;;5054290;28;20037;-72
2022/10/10 12:14:37;;;;;;;8.43;6.43;;;21.80;59.00;;;;;;5054907;28;20056;-73
2022/10/10 12:17:04;;;;;;;12.02;6.88;;;21.80;58.90;;;;;;5054617;28;20036;-72
2022/10/10 12:19:30;;;;;;;8.95;6.65;;;21.80;59.10;;;;;;5054527;28;20029;-70
2022/10/10 12:22:01;;;;;;;11.88;6.60;;;21.80;59.80;;;;;;5054857;28;20599;-78
2022/10/10 12:24:32;;;;;;;8.68;6.13;;;21.90;60.30;;;;;;5054055;28;20508;-70
2022/10/10 12:26:58;;;;;;;7.68;6.55;;;21.90;60.90;;;;;;5054212;28;20037;-73
2022/10/10 12:29:45;;;;;;;8.32;6.03;;;22.00;60.40;;;;;;5054207;28;20037;-80
2022/10/10 12:32:13;;;;;;;9.65;7.13;;;22.00;59.60;;;;;;5054762;28;20029;-70
2022/10/10 12:34:57;;;;;;;12.82;5.85;;;22.00;60.40;;;;;;5053948;28;20498;-80
2022/10/10 12:37:34;;;;;;;8.45;5.93;;;22.00;60.10;;;;;;5054103;28;20126;-70
2022/10/10 12:40:06;;;;;;;13.35;6.30;;;21.90;59.10;;;;;;5053928;28;20397;-71
2022/10/10 12:42:59;;;;;;;12.65;5.88;;;21.90;59.70;;;;;;5053995;28;20037;-74
2022/10/10 12:45:28;;;;;;;12.88;6.20;;;21.90;60.20;;;;;;5054194;28;20049;-79
2022/10/10 12:48:01;;;;;;;11.00;6.50;;;21.90;59.80;;;;;;5053968;28;20158;-69
2022/10/10 12:50:40;;;;;;;7.55;4.78;;;21.90;59.50;;;;;;5054325;28;20112;-70
2022/10/10 12:53:17;;;;;;;8.45;5.55;;;22.00;58.60;;;;;;5053947;28;20044;-70
2022/10/10 12:55:45;;;;;;;8.73;5.35;;;22.00;58.20;;;;;;5053869;28;20504;-70
2022/10/10 12:58:28;;;;;;;17.90;6.63;;;22.00;59.40;;;;;;5053861;28;20086;-72
2022/10/10 13:01:00;;;;;;;7.65;6.22;;;22.00;60.40;;;;;;5053845;28;20036;-83
2022/10/10 13:03:31;;;;;;;11.15;5.35;;;22.00;61.10;;;;;;5053565;28;20029;-70
2022/10/10 13:06:29;;;;;;;8.00;6.30;;;22.00;60.70;;;;;;5053619;28;20049;-74
2022/10/10 13:08:55;;;;;;;11.38;6.53;;;22.00;60.00;;;;;;5049182;28;20041;-73
2022/10/10 13:11:20;;;;;;;9.48;5.85;;;22.00;59.60;;;;;;5053381;28;20513;-71
2022/10/10 13:13:52;;;;;;;6.35;5.47;;;22.00;59.70;;;;;;5053564;28;20104;-78
2022/10/10 13:16:21;;;;;;;7.88;5.50;;;22.00;59.60;;;;;;5053730;28;20086;-71
2022/10/10 13:18:55;;;;;;;10.85;6.28;;;22.00;59.60;;;;;;5053210;28;20041;-75
2022/10/10 13:21:33;;;;;;;9.10;6.05;;;22.00;60.40;;;;;;5053587;28;20358;-72
2022/10/10 13:24:01;;;;;;;11.38;5.63;;;22.00;61.20;;;;;;5053829;28;20052;-72
2022/10/10 13:26:31;;;;;;;9.63;6.10;;;22.00;60.40;;;;;;5053273;28;20108;-72
2022/10/10 13:29:00;;;;;;;12.13;6.00;;;22.00;60.70;;;;;;5053783;28;20091;-86
2022/10/10 13:31:28;;;;;;;6.70;5.93;;;22.00;61.20;;;;;;5053161;28;20036;-73
2022/10/10 13:34:05;;;;;;;7.18;6.05;;;22.00;61.40;;;;;;5053361;28;20025;-72
2022/10/10 13:36:31;;;;;;;8.20;6.25;;;22.00;61.20;;;;;;5052559;28;20032;-72
2022/10/10 13:38:58;;;;;;;11.90;5.32;;;22.00;60.80;;;;;;5053186;28;20389;-79
2022/10/10 13:41:25;;;;;;;8.00;5.70;;;22.00;61.00;;;;;;5052972;28;20040;-72
2022/10/10 13:43:51;;;;;;;12.27;6.35;;;22.00;61.00;;;;;;5053082;28;20143;-72
2022/10/10 13:46:27;;;;;;;11.98;6.10;;;22.00;61.80;;;;;;5053122;28;20040;-72
2022/10/10 13:48:54;;;;;;;9.32;5.60;;;22.00;62.20;;;;;;5053406;28;20033;-72
2022/10/10 13:51:38;;;;;;;11.30;6.13;;;22.00;62.10;;;;;;5053241;28;20086;-71
2022/10/10 13:54:04;;;;;;;11.90;5.68;;;22.10;62.10;;;;;;5053188;28;20044;-71
2022/10/10 13:56:38;;;;;;;10.63;6.63;;;22.10;62.40;;;;;;5052637;28;20413;-71
2022/10/10 13:59:10;;;;;;;12.27;5.75;;;22.10;62.50;;;;;;5035334;28;20040;-71
2022/10/10 14:01:45;;;;;;;6.97;5.90;;;22.10;62.50;;;;;;5053176;28;20467;-71
2022/10/10 14:04:25;;;;;;;8.93;5.68;;;22.10;63.00;;;;;;5052963;28;20037;-71
2022/10/10 14:06:59;;;;;;;6.55;5.10;;;22.00;62.40;;;;;;5052693;28;20044;-71
2022/10/10 14:09:27;;;;;;;9.02;5.45;;;22.00;60.40;;;;;;5053002;28;20509;-71
2022/10/10 14:11:54;;;;;;;9.30;5.53;;;22.00;60.40;;;;;;5052825;28;20396;-71
2022/10/10 14:14:25;;;;;;;10.93;5.40;;;22.00;60.30;;;;;;5052937;28;20461;-71
2022/10/10 14:17:17;;;;;;;12.73;5.70;;;22.00;60.50;;;;;;5053026;28;20541;-69
2022/10/10 14:19:45;;;;;;;11.23;5.13;;;22.00;60.20;;;;;;5050158;28;20267;-70
2022/10/10 14:22:11;;;;;;;12.00;5.80;;;21.90;60.30;;;;;;5052363;28;20537;-85
2022/10/10 14:24:37;;;;;;;7.35;6.00;;;21.90;60.90;;;;;;5052677;28;20119;-71
2022/10/10 14:27:23;;;;;;;9.75;6.05;;;21.90;61.30;;;;;;5052789;28;20033;-72
2022/10/10 14:29:50;;;;;;;6.95;5.70;;;21.90;62.00;;;;;;5052712;28;20043;-70
2022/10/10 14:32:17;;;;;;;13.93;6.22;;;21.90;63.00;;;;;;5051554;28;20469;-71
2022/10/10 14:34:43;;;;;;;9.02;6.30;;;21.80;63.10;;;;;;5052891;28;20040;-71
2022/10/10 14:37:24;;;;;;;9.65;6.50;;;21.80;61.50;;;;;;5052691;28;20059;-71
2022/10/10 14:39:50;;;;;;;11.93;6.32;;;21.80;60.90;;;;;;5052626;28;20041;-71
2022/10/10 14:42:18;;;;;;;9.63;6.28;;;21.80;60.80;;;;;;5053129;28;20029;-71
2022/10/10 14:44:44;;;;;;;11.65;6.25;;;21.80;61.20;;;;;;5052018;28;20436;-79
2022/10/10 14:47:18;;;;;;;10.25;7.10;;;21.80;62.30;;;;;;5054027;28;20067;-86
2022/10/10 14:49:44;;;;;;;10.52;7.25;;;21.80;63.20;;;;;;5056694;28;20037;-71
2022/10/10 14:52:10;;;;;;;11.27;7.13;;;21.80;63.90;;;;;;5056158;28;20408;-86
2022/10/10 14:54:36;;;;;;;9.68;6.18;;;21.80;63.60;;;;;;5056539;28;20427;-71
2022/10/10 14:57:02;;;;;;;7.95;6.10;;;21.80;63.10;;;;;;5055808;28;20029;-71
2022/10/10 14:59:27;;;;;;;8.57;5.88;;;21.70;62.70;;;;;;5065426;28;20358;-71
2022/10/10 15:01:53;;;;;;;11.23;6.63;;;21.70;62.20;;;;;;5075151;28;20051;-72
2022/10/10 15:04:19;;;;;;;12.02;6.60;;;21.70;61.70;;;;;;5075767;28;20465;-71
2022/10/10 15:06:44;;;;;;;12.18;7.10;;;21.70;62.50;;;;;;5075539;28;20481;-71
2022/10/10 15:09:11;;;;;;;10.13;6.45;;;21.70;63.40;;;;;;5075978;28;20462;-70
2022/10/10 15:11:37;;;;;;;8.05;6.53;;;21.60;64.10;;;;;;5075386;28;20491;-81
2022/10/10 15:14:03;;;;;;;8.85;6.18;;;21.60;64.80;;;;;;5075782;28;20028;-71
2022/10/10 15:16:29;;;;;;;10.88;5.93;;;21.60;64.10;;;;;;5075809;28;20040;-71
2022/10/10 15:18:55;;;;;;;9.20;5.90;;;21.60;64.50;;;;;;5075561;28;20036;-86
2022/10/10 15:21:20;;;;;;;7.28;5.90;;;21.50;65.00;;;;;;5065577;28;20071;-77
2022/10/10 15:23:46;;;;;;;7.93;5.93;;;21.50;65.40;;;;;;5055278;28;20514;-71
2022/10/10 15:26:12;;;;;;;8.15;5.80;;;21.50;65.70;;;;;;5054482;28;20405;-71
2022/10/10 15:28:38;;;;;;;10.13;5.43;;;21.40;65.50;;;;;;5055631;28;20025;-86
2022/10/10 15:31:04;;;;;;;11.75;6.32;;;21.40;65.60;;;;;;5037594;28;20427;-71
2022/10/10 15:33:30;;;;;;;8.35;5.93;;;21.40;65.90;;;;;;5054286;28;20033;-70
2022/10/10 15:36:02;;;;;;;17.10;6.60;;;21.40;66.10;;;;;;5053985;28;20033;-71
2022/10/10 15:38:28;;;;;;;7.70;5.60;;;21.30;66.30;;;;;;5055177;28;20037;-71
2022/10/10 15:41:09;;;;;;;10.68;6.18;;;21.30;66.50;;;;;;5055516;28;20095;-70
2022/10/10 15:43:53;;;;;;;11.02;6.18;;;21.30;66.70;;;;;;5055212;28;20059;-70
2022/10/10 15:46:25;;;;;;;12.05;6.05;;;21.30;67.00;;;;;;5054970;28;20510;-71
2022/10/10 15:48:52;;;;;;;10.57;6.43;;;21.20;67.10;;;;;;5055223;28;20148;-69
2022/10/10 15:51:18;;;;;;;11.07;6.40;;;21.20;67.00;;;;;;5054962;28;20036;-71
2022/10/10 15:53:44;;;;;;;8.57;6.53;;;21.20;66.90;;;;;;5054914;28;20106;-71
2022/10/10 15:56:13;;;;;;;11.70;7.22;;;21.20;66.80;;;;;;5055199;28;20114;-71
2022/10/10 15:58:39;;;;;;;14.60;6.70;;;21.10;66.80;;;;;;5054278;28;20040;-71
2022/10/10 16:01:10;;;;;;;13.30;6.50;;;21.10;67.20;;;;;;5054806;28;20162;-86
2022/10/10 16:03:36;;;;;;;10.95;6.13;;;21.00;67.70;;;;;;5054443;28;20048;-87
2022/10/10 16:06:02;;;;;;;14.75;6.40;;;21.00;68.00;;;;;;5054646;28;20429;-71
2022/10/10 16:08:28;;;;;;;10.18;6.20;;;21.00;68.20;;;;;;5055089;28;20029;-71
2022/10/10 16:10:54;;;;;;;14.52;7.80;;;21.00;68.10;;;;;;5054707;28;20033;-71
2022/10/10 16:13:19;;;;;;;11.93;6.55;;;20.90;67.90;;;;;;5054458;28;20539;-71
2022/10/10 16:15:58;;;;;;;10.10;6.60;;;20.90;68.10;;;;;;5054241;28;20033;-71
2022/10/10 16:18:24;;;;;;;13.60;6.63;;;20.80;68.30;;;;;;5054606;28;20029;-71
2022/10/10 16:20:50;;;;;;;9.00;6.07;;;20.80;69.10;;;;;;5054087;28;20112;-92
2022/10/10 16:23:16;;;;;;;12.32;6.75;;;20.80;69.60;;;;;;5053911;28;20493;-91
2022/10/10 16:25:42;;;;;;;17.23;6.15;;;20.70;69.70;;;;;;5053471;28;20044;-72
2022/10/10 16:28:07;;;;;;;11.65;6.25;;;20.70;70.00;;;;;;5053893;28;20440;-72
2022/10/10 16:30:33;;;;;;;8.57;6.45;;;20.60;70.10;;;;;;5054317;28;20472;-73
2022/10/10 16:32:59;;;;;;;11.23;6.55;;;20.60;70.20;;;;;;5054576;28;20032;-72
2022/10/10 16:35:24;;;;;;;9.82;6.05;;;20.50;70.30;;;;;;5054265;28;20041;-72
2022/10/10 16:37:50;;;;;;;18.23;6.68;;;20.50;70.70;;;;;;5053439;28;20025;-70
2022/10/10 16:40:16;;;;;;;15.32;6.55;;;20.40;70.80;;;;;;5072156;28;20036;-71
2022/10/10 16:42:42;;;;;;;19.85;7.05;;;20.40;71.10;;;;;;5073761;28;20029;-71
2022/10/10 16:45:08;;;;;;;14.45;6.78;;;20.40;71.30;;;;;;5056236;28;20040;-71
2022/10/10 16:47:35;;;;;;;14.13;6.55;;;20.30;71.40;;;;;;5074408;28;20447;-71
2022/10/10 16:50:01;;;;;;;14.27;6.72;;;20.30;71.80;;;;;;5075167;28;20059;-71
2022/10/10 16:52:26;;;;;;;16.08;7.40;;;20.30;72.00;;;;;;5073737;28;20060;-71
2022/10/10 16:54:52;;;;;;;13.73;7.20;;;20.20;72.30;;;;;;5055691;28;20039;-71
2022/10/10 16:57:18;;;;;;;12.55;7.43;;;20.20;72.80;;;;;;5074305;28;20025;-71
2022/10/10 16:59:44;;;;;;;14.43;7.55;;;20.10;73.00;;;;;;5073609;28;20468;-71
2022/10/10 17:02:11;;;;;;;16.92;7.50;;;20.10;73.80;;;;;;5073594;28;20472;-71
2022/10/10 17:04:36;;;;;;;11.10;7.05;;;20.10;74.00;;;;;;5073708;28;20068;-72
2022/10/10 17:07:02;;;;;;;16.23;8.23;;;20.10;73.80;;;;;;5073298;28;20460;-71
2022/10/10 17:09:28;;;;;;;16.08;7.88;;;20.00;73.90;;;;;;5073504;28;20039;-71
2022/10/10 17:11:53;;;;;;;12.75;8.68;;;20.00;74.20;;;;;;5072843;28;20469;-71
2022/10/10 17:14:19;;;;;;;16.98;8.13;;;19.90;74.40;;;;;;5075040;28;20040;-72
2022/10/10 17:16:45;;;;;;;12.93;8.00;;;19.90;75.00;;;;;;5073628;28;20123;-71
2022/10/10 17:19:10;;;;;;;11.40;8.48;;;19.90;74.70;;;;;;5074776;28;20393;-71
2022/10/10 17:21:36;;;;;;;15.23;8.75;;;19.90;75.30;;;;;;5073066;28;20455;-69
2022/10/10 17:24:02;;;;;;;13.55;8.95;;;19.80;75.60;;;;;;5055208;28;20048;-71
2022/10/10 17:26:28;;;;;;;13.15;8.02;;;19.80;75.20;;;;;;5074079;28;20459;-71
2022/10/10 17:28:56;;;;;;;13.55;8.02;;;19.80;74.90;;;;;;5077461;28;20028;-71
2022/10/10 17:31:22;;;;;;;14.10;7.97;;;19.70;75.10;;;;;;5073452;28;20029;-71
2022/10/10 17:33:47;;;;;;;18.85;9.00;;;19.70;75.60;;;;;;5073161;28;20044;-72
2022/10/10 17:36:17;;;;;;;15.38;8.52;;;19.70;76.00;;;;;;5072770;28;20388;-71
2022/10/10 17:38:43;;;;;;;14.63;9.55;;;19.70;76.20;;;;;;5072939;28;20059;-71
2022/10/10 17:41:10;;;;;;;15.32;9.30;;;19.60;76.00;;;;;;5074436;28;20033;-71
2022/10/10 17:43:36;;;;;;;11.45;9.43;;;19.60;76.10;;;;;;5073005;28;20113;-71
2022/10/10 17:46:09;;;;;;;21.15;10.05;;;19.60;75.90;;;;;;5073091;28;20528;-71
2022/10/10 17:48:39;;;;;;;14.60;9.10;;;19.50;76.20;;;;;;5056766;28;20037;-71
2022/10/10 17:51:17;;;;;;;14.68;9.80;;;19.50;75.50;;;;;;5073114;28;20443;-71
2022/10/10 17:53:43;;;;;;;15.55;9.73;;;19.50;75.40;;;;;;5073005;28;20031;-72
2022/10/10 17:56:15;;;;;;;16.13;9.73;;;19.50;75.20;;;;;;5072859;28;20472;-70
2022/10/10 17:58:41;;;;;;;12.63;9.25;;;19.50;75.50;;;;;;5070920;28;20083;-71
2022/10/10 18:01:07;;;;;;;17.73;9.13;;;19.40;75.30;;;;;;5070049;28;20041;-71
2022/10/10 18:03:33;;;;;;;16.20;9.45;;;19.40;75.00;;;;;;5071515;28;20036;-70
2022/10/10 18:06:07;;;;;;;13.55;9.80;;;19.40;74.90;;;;;;5072916;28;20094;-71
2022/10/10 18:08:33;;;;;;;15.38;9.07;;;19.40;75.10;;;;;;5073098;28;20060;-70
2022/10/10 18:10:59;;;;;;;11.88;9.60;;;19.30;75.10;;;;;;5072536;28;20047;-71
2022/10/10 18:13:25;;;;;;;16.13;9.45;;;19.30;75.30;;;;;;5072616;28;20100;-76
2022/10/10 18:15:50;;;;;;;21.83;10.65;;;19.30;75.40;;;;;;5072873;28;20060;-70
2022/10/10 18:18:16;;;;;;;17.75;10.45;;;19.20;75.40;;;;;;5072795;28;20082;-71
2022/10/10 18:20:42;;;;;;;21.40;11.02;;;19.30;76.20;;;;;;5072561;28;20060;-70
2022/10/10 18:23:08;;;;;;;16.92;10.82;;;19.20;76.90;;;;;;5075689;28;20641;-71
2022/10/10 18:25:33;;;;;;;21.50;11.02;;;19.20;77.00;;;;;;5076583;28;20049;-71
2022/10/10 18:27:59;;;;;;;21.23;10.73;;;19.10;77.00;;;;;;5076517;28;20041;-72
2022/10/10 18:30:26;;;;;;;19.02;10.30;;;19.10;77.20;;;;;;5076172;28;20488;-90
2022/10/10 18:32:51;;;;;;;17.45;10.48;;;19.10;77.40;;;;;;5076559;28;20077;-71
2022/10/10 18:35:18;;;;;;;16.30;10.38;;;19.10;77.30;;;;;;5076686;28;20060;-71
2022/10/10 18:37:44;;;;;;;17.17;10.88;;;19.00;77.30;;;;;;5074302;28;20041;-72
2022/10/10 18:40:10;;;;;;;15.18;9.77;;;19.00;77.50;;;;;;5073735;28;20086;-72
2022/10/10 18:42:36;;;;;;;15.65;10.20;;;19.00;77.70;;;;;;5075285;28;20032;-72
2022/10/10 18:45:03;;;;;;;19.15;9.82;;;18.90;77.80;;;;;;5075967;28;20051;-71
2022/10/10 18:47:28;;;;;;;16.23;10.00;;;18.90;77.50;;;;;;5058336;28;20051;-72
2022/10/10 18:49:54;;;;;;;14.90;10.73;;;18.90;77.50;;;;;;5076549;28;20032;-71
2022/10/10 18:52:20;;;;;;;22.67;10.05;;;18.90;77.20;;;;;;5076036;28;20028;-71
2022/10/10 18:54:46;;;;;;;14.80;9.23;;;18.90;77.40;;;;;;5076132;28;20032;-86
2022/10/10 18:57:12;;;;;;;12.98;10.20;;;18.90;77.50;;;;;;5076185;28;20070;-71
2022/10/10 18:59:38;;;;;;;16.25;10.43;;;18.90;77.80;;;;;;5075984;28;20041;-71
2022/10/10 19:02:04;;;;;;;14.48;10.85;;;18.80;78.10;;;;;;5076001;28;20028;-70
2022/10/10 19:04:29;;;;;;;17.27;11.02;;;18.80;78.60;;;;;;5075586;28;20051;-71